createdAt,value
2023-01-19T00:04:12.272Z,98739.90
2023-01-19T00:09:15.027Z,98763.27
2023-01-19T00:14:17.792Z,98772.20
2023-01-19T00:19:20.540Z,98782.15
2023-01-19T00:24:23.304Z,98806.73
2023-01-19T00:29:27.772Z,98818.88
2023-01-19T00:34:39.777Z,98827.59
2023-01-19T00:39:43.602Z,98838.57
2023-01-19T00:44:46.517Z,98849.24
2023-01-19T00:49:49.223Z,98864.36
2023-01-19T00:54:52.257Z,98869.52
2023-01-19T00:59:55.293Z,98873.29
2023-01-19T01:04:58.130Z,98879.63
2023-01-19T01:10:01.578Z,98887.19
2023-01-19T01:15:06.489Z,98884.64
2023-01-19T01:20:10.304Z,98890.67
2023-01-19T01:25:15.397Z,98904.41
2023-01-19T01:30:19.588Z,98915.02
2023-01-19T01:35:22.366Z,98929.39
2023-01-19T01:40:25.093Z,98934.20
2023-01-19T01:45:36.470Z,98942.62
2023-01-19T01:51:05.831Z,98952.75
2023-01-19T01:56:17.773Z,98959.79
2023-01-19T02:01:39.527Z,98964.42
2023-01-19T02:07:01.196Z,98983.84
2023-01-19T02:12:22.865Z,98989.86
2023-01-19T02:17:26.167Z,98984.54
2023-01-19T02:22:36.270Z,98987.11
2023-01-19T02:27:39.669Z,98993.98
2023-01-19T02:32:43.168Z,99006.98
2023-01-19T02:37:47.319Z,99010.05
2023-01-19T02:42:52.313Z,99009.38
2023-01-19T02:47:55.079Z,99004.05
2023-01-19T02:53:19.539Z,98988.92
2023-01-19T02:59:09.352Z,98994.04
2023-01-19T03:04:31.654Z,98996.27
2023-01-19T03:09:52.769Z,98993.38
2023-01-19T03:15:01.204Z,99001.12
2023-01-19T03:20:07.231Z,98998.87
2023-01-19T03:25:10.339Z,98992.34
2023-01-19T03:30:24.235Z,98981.70
2023-01-19T03:35:31.912Z,98989.79
2023-01-19T03:40:36.700Z,98987.09
2023-01-19T03:45:40.119Z,98983.20
2023-01-19T03:50:42.993Z,98986.01
2023-01-19T03:55:48.415Z,98981.05
2023-01-19T04:00:51.186Z,98964.98
2023-01-19T04:05:56.408Z,98965.08
2023-01-19T04:10:59.249Z,98975.27
2023-01-19T04:16:04.114Z,98978.91
2023-01-19T04:21:09.519Z,98988.35
2023-01-19T04:26:13.080Z,98994.58
2023-01-19T04:31:15.918Z,98998.59
2023-01-19T04:36:18.755Z,99013.34
2023-01-19T04:41:21.675Z,99030.26
2023-01-19T04:46:24.467Z,99025.29
2023-01-19T04:51:28.803Z,99027.40
2023-01-19T04:56:31.542Z,99042.63
2023-01-19T05:01:34.363Z,99053.72
2023-01-19T05:06:37.554Z,99050.30
2023-01-19T05:11:40.280Z,99042.59
2023-01-19T05:16:43.081Z,99046.71
2023-01-19T05:21:45.810Z,99048.24
2023-01-19T05:26:48.576Z,99056.30
2023-01-19T05:31:51.307Z,99059.45
2023-01-19T05:36:54.172Z,99063.91
2023-01-19T05:41:56.950Z,99069.86
2023-01-19T05:47:00.769Z,99078.73
2023-01-19T05:52:03.660Z,99095.33
2023-01-19T05:57:08.911Z,99107.66
2023-01-19T06:02:11.822Z,99108.36
2023-01-19T06:07:14.654Z,99128.08
2023-01-19T06:12:17.438Z,99141.10
2023-01-19T06:17:20.659Z,99141.80
2023-01-19T06:22:23.785Z,99153.27
2023-01-19T06:27:26.635Z,99167.67
2023-01-19T06:32:29.377Z,99169.22
2023-01-19T06:37:32.220Z,99178.83
2023-01-19T06:42:34.974Z,99190.14
2023-01-19T06:47:37.828Z,99188.60
2023-01-19T06:52:42.520Z,99188.61
2023-01-19T06:57:46.177Z,99195.82
2023-01-19T07:02:49.264Z,99196.86
2023-01-19T07:07:54.055Z,99209.54
2023-01-19T07:12:58.267Z,99223.42
2023-01-19T07:18:05.674Z,99231.14
2023-01-19T07:23:09.491Z,99244.50
2023-01-19T07:28:15.734Z,99266.27
2023-01-19T07:33:18.806Z,99279.30
2023-01-19T07:38:23.016Z,99281.18
2023-01-19T07:43:25.874Z,99281.52
2023-01-19T07:48:29.154Z,99285.98
2023-01-19T07:53:32.894Z,99292.67
2023-01-19T07:58:35.852Z,99283.75
2023-01-19T08:03:39.446Z,99283.92
2023-01-19T08:08:42.281Z,99290.09
2023-01-19T08:13:48.016Z,99288.03
2023-01-19T08:18:50.877Z,99289.23
2023-01-19T08:23:54.956Z,99287.69
2023-01-19T08:29:01.074Z,99289.74
2023-01-19T08:34:04.839Z,99283.38
2023-01-19T08:39:12.342Z,99291.23
2023-01-19T08:44:16.050Z,99289.14
2023-01-19T08:49:18.921Z,99307.48
2023-01-19T08:54:25.190Z,99315.52
2023-01-19T08:59:40.634Z,99310.51
2023-01-19T09:04:44.559Z,99317.34
2023-01-19T09:09:47.828Z,99321.26
2023-01-19T09:14:50.693Z,99327.94
2023-01-19T09:19:54.193Z,99331.37
2023-01-19T09:24:57.063Z,99327.59
2023-01-19T09:29:59.897Z,99324.98
2023-01-19T09:35:02.820Z,99320.96
2023-01-19T09:40:07.067Z,99328.99
2023-01-19T09:45:25.414Z,99326.90
2023-01-19T09:50:34.198Z,99324.10
2023-01-19T09:55:39.745Z,99325.10
2023-01-19T10:01:25.194Z,99323.88
2023-01-19T10:06:56.398Z,99321.45
2023-01-19T10:12:22.325Z,99321.59
2023-01-19T10:17:42.137Z,99321.55
2023-01-19T10:22:49.716Z,99333.06
2023-01-19T10:27:52.629Z,99336.16
2023-01-19T10:32:55.471Z,99333.75
2023-01-19T10:38:02.032Z,99335.17
2023-01-19T10:43:41.333Z,99332.43
2023-01-19T10:48:52.310Z,99334.33
2023-01-19T10:54:03.997Z,99335.17
2023-01-19T10:59:07.799Z,99323.45
2023-01-19T11:04:28.894Z,99317.04
2023-01-19T11:09:31.749Z,99305.61
2023-01-19T11:14:34.697Z,99308.28
2023-01-19T11:19:37.545Z,99304.88
2023-01-19T11:24:40.486Z,99306.27
2023-01-19T11:30:01.812Z,99306.80
2023-01-19T11:35:41.174Z,99309.08
2023-01-19T11:40:59.102Z,99311.62
2023-01-19T11:46:03.107Z,99305.85
2023-01-19T11:51:10.418Z,99304.59
2023-01-19T11:56:15.664Z,99304.20
2023-01-19T12:01:24.886Z,99303.48
2023-01-19T12:06:41.467Z,99302.79
2023-01-19T12:11:50.834Z,99303.84
2023-01-19T12:16:58.125Z,99301.63
2023-01-19T12:22:01.763Z,99298.39
2023-01-19T12:27:18.497Z,99294.92
2023-01-19T12:32:34.566Z,99295.03
2023-01-19T12:37:41.303Z,99298.27
2023-01-19T12:43:00.987Z,99296.56
2023-01-19T12:48:04.922Z,99292.61
2023-01-19T12:53:20.186Z,99285.71
2023-01-19T12:58:25.291Z,99299.30
2023-01-19T13:03:29.297Z,99293.83
2023-01-19T13:08:57.253Z,99286.11
2023-01-19T13:14:00.093Z,99289.72
2023-01-19T13:19:06.333Z,99285.95
2023-01-19T13:24:15.209Z,99290.96
2023-01-19T13:29:46.026Z,99294.45
2023-01-19T13:34:58.633Z,99291.36
2023-01-19T13:40:02.845Z,99293.31
2023-01-19T13:45:25.143Z,99291.55
2023-01-19T13:50:33.902Z,99292.82
2023-01-19T13:55:36.746Z,99296.81
2023-01-19T14:00:46.092Z,99297.54
2023-01-19T14:05:54.049Z,99301.52
2023-01-19T14:10:56.815Z,99309.80
2023-01-19T14:16:23.813Z,99314.29
2023-01-19T14:21:38.315Z,99322.55
2023-01-19T14:26:49.265Z,99319.46
2023-01-19T14:32:00.935Z,99324.09
2023-01-19T14:37:15.495Z,99327.85
2023-01-19T14:43:20.237Z,99329.92
2023-01-19T14:48:29.442Z,99341.63
2023-01-19T14:53:37.197Z,99339.23
2023-01-19T14:58:40.021Z,99346.30
2023-01-19T15:03:45.178Z,99349.79
2023-01-19T15:08:53.806Z,99352.03
2023-01-19T15:14:04.402Z,99354.42
2023-01-19T15:19:11.554Z,99356.81
2023-01-19T15:24:16.894Z,99353.04
2023-01-19T15:29:26.312Z,99349.57
2023-01-19T15:34:29.152Z,99352.29
2023-01-19T15:39:32.614Z,99354.68
2023-01-19T15:44:35.492Z,99356.92
2023-01-19T15:49:38.470Z,99362.95
2023-01-19T15:54:41.231Z,99369.81
2023-01-19T15:59:44.174Z,99380.97
2023-01-19T16:04:50.463Z,99383.20
2023-01-19T16:09:53.330Z,99384.39
2023-01-19T16:14:56.161Z,99387.11
2023-01-19T16:19:59.201Z,99390.55
2023-01-19T16:25:02.169Z,99391.77
2023-01-19T16:30:07.441Z,99396.08
2023-01-19T16:35:10.563Z,99396.25
2023-01-19T16:40:13.537Z,99398.50
2023-01-19T16:45:16.467Z,99400.95
2023-01-19T16:50:19.634Z,99402.35
2023-01-19T16:55:22.394Z,99400.64
2023-01-19T17:00:25.351Z,99400.64
2023-01-19T17:05:28.224Z,99403.05
2023-01-19T17:10:31.413Z,99402.55
2023-01-19T17:15:34.726Z,99398.08
2023-01-19T17:20:37.579Z,99397.73
2023-01-19T17:25:40.430Z,99401.68
2023-01-19T17:30:43.307Z,99402.02
2023-01-19T17:35:46.955Z,99403.73
2023-01-19T17:40:50.011Z,99401.84
2023-01-19T17:45:52.905Z,99403.40
2023-01-19T17:51:02.343Z,99406.00
2023-01-19T17:56:07.419Z,99403.59
2023-01-19T18:01:16.232Z,99398.97
2023-01-19T18:06:20.212Z,99399.32
2023-01-19T18:11:23.395Z,99393.83
2023-01-19T18:16:29.425Z,99391.41
2023-01-19T18:21:32.241Z,99386.59
2023-01-19T18:26:35.846Z,99387.79
2023-01-19T18:31:38.868Z,99383.48
2023-01-19T18:36:41.882Z,99386.73
2023-01-19T18:41:44.767Z,99383.13
2023-01-19T18:46:47.753Z,99382.28
2023-01-19T18:51:50.486Z,99388.13
2023-01-19T18:56:53.294Z,99392.41
2023-01-19T19:01:56.178Z,99394.64
2023-01-19T19:06:58.982Z,99390.69
2023-01-19T19:12:01.830Z,99390.34
2023-01-19T19:17:04.599Z,99390.67
2023-01-19T19:22:07.438Z,99398.74
2023-01-19T19:27:14.228Z,99399.61
2023-01-19T19:32:20.511Z,99397.89
2023-01-19T19:37:23.416Z,99396.02
2023-01-19T19:42:26.350Z,99390.73
2023-01-19T19:47:30.657Z,99397.61
2023-01-19T19:52:41.049Z,99404.66
2023-01-19T19:57:44.001Z,99409.13
2023-01-19T20:02:46.809Z,99420.11
2023-01-19T20:07:49.630Z,99418.23
2023-01-19T20:12:52.445Z,99413.60
2023-01-19T20:17:56.282Z,99413.25
2023-01-19T20:23:02.302Z,99410.33
2023-01-19T20:28:05.985Z,99412.21
2023-01-19T20:33:08.787Z,99414.63
2023-01-19T20:38:11.720Z,99413.42
2023-01-19T20:43:14.916Z,99417.38
2023-01-19T20:48:17.696Z,99417.39
2023-01-19T20:53:20.577Z,99420.87
2023-01-19T20:58:23.730Z,99422.59
2023-01-19T21:03:26.435Z,99426.20
2023-01-19T21:08:29.209Z,99429.47
2023-01-19T21:13:32.415Z,99440.97
2023-01-19T21:18:35.329Z,99439.26
2023-01-19T21:23:38.082Z,99439.42
2023-01-19T21:28:41.452Z,99445.27
2023-01-19T21:33:44.313Z,99447.84
2023-01-19T21:38:47.264Z,99456.59
2023-01-19T21:43:50.059Z,99456.93
2023-01-19T21:48:52.803Z,99466.70
2023-01-19T21:53:59.667Z,99477.17
2023-01-19T21:59:03.600Z,99479.06
2023-01-19T22:04:06.560Z,99481.28
2023-01-19T22:09:09.317Z,99486.58
2023-01-19T22:14:12.128Z,99482.80
2023-01-19T22:19:14.840Z,99482.62
2023-01-19T22:24:17.658Z,99492.75
2023-01-19T22:29:20.408Z,99495.84
2023-01-19T22:34:23.169Z,99494.64
2023-01-19T22:39:25.944Z,99488.98
2023-01-19T22:44:28.667Z,99494.81
2023-01-19T22:49:31.400Z,99495.32
2023-01-19T22:54:34.256Z,99493.95
2023-01-19T22:59:36.977Z,99497.73
2023-01-19T23:04:39.747Z,99508.89
2023-01-19T23:09:42.723Z,99512.84
2023-01-19T23:14:45.441Z,99521.08
2023-01-19T23:19:48.201Z,99530.19
2023-01-19T23:24:50.920Z,99536.55
2023-01-19T23:29:53.668Z,99541.88
2023-01-19T23:34:56.372Z,99545.67
2023-01-19T23:39:59.108Z,99544.10
2023-01-19T23:45:02.224Z,99553.71
2023-01-19T23:50:07.711Z,99554.90
2023-01-19T23:55:10.492Z,99559.38
